sensor_id;sensor_type;location;lat;lon;timestamp;P1;durP1;ratioP1;P2;durP2;ratioP2
7667;SDS011;3876;42.204;24.686;2024-02-28T00:01:59;1.40;;;1.37;;
7667;SDS011;3876;42.204;24.686;2024-02-28T00:04:26;1.13;;;1.13;;
7667;SDS011;3876;42.204;24.686;2024-02-28T00:06:54;1.33;;;1.30;;
7667;SDS011;3876;42.204;24.686;2024-02-28T00:09:20;0.83;;;0.83;;
7667;SDS011;3876;42.204;24.686;2024-02-28T00:11:47;1.27;;;1.27;;
7667;SDS011;3876;42.204;24.686;2024-02-28T00:14:14;1.03;;;1.03;;
7667;SDS011;3876;42.204;24.686;2024-02-28T00:16:41;6.23;;;1.17;;
7667;SDS011;3876;42.204;24.686;2024-02-28T00:19:07;5.33;;;1.83;;
7667;SDS011;3876;42.204;24.686;2024-02-28T00:21:33;1.33;;;1.33;;
7667;SDS011;3876;42.204;24.686;2024-02-28T00:24:02;4.63;;;1.27;;
7667;SDS011;3876;42.204;24.686;2024-02-28T00:26:29;1.83;;;1.73;;
7667;SDS011;3876;42.204;24.686;2024-02-28T00:28:55;1.53;;;1.47;;
7667;SDS011;3876;42.204;24.686;2024-02-28T00:31:22;0.97;;;0.80;;
7667;SDS011;3876;42.204;24.686;2024-02-28T00:33:49;1.00;;;1.00;;
7667;SDS011;3876;42.204;24.686;2024-02-28T00:36:16;0.93;;;0.93;;
7667;SDS011;3876;42.204;24.686;2024-02-28T00:38:42;1.20;;;1.20;;
7667;SDS011;3876;42.204;24.686;2024-02-28T00:41:10;2.00;;;1.23;;
7667;SDS011;3876;42.204;24.686;2024-02-28T00:43:37;0.90;;;0.90;;
7667;SDS011;3876;42.204;24.686;2024-02-28T00:46:04;1.00;;;1.00;;
7667;SDS011;3876;42.204;24.686;2024-02-28T00:48:36;3.27;;;1.10;;
7667;SDS011;3876;42.204;24.686;2024-02-28T00:51:03;0.90;;;0.90;;
7667;SDS011;3876;42.204;24.686;2024-02-28T00:53:30;0.97;;;0.97;;
7667;SDS011;3876;42.204;24.686;2024-02-28T00:55:56;1.00;;;1.00;;
7667;SDS011;3876;42.204;24.686;2024-02-28T00:58:24;0.90;;;0.90;;
7667;SDS011;3876;42.204;24.686;2024-02-28T01:00:53;1.90;;;0.83;;
7667;SDS011;3876;42.204;24.686;2024-02-28T01:03:19;2.03;;;1.93;;
7667;SDS011;3876;42.204;24.686;2024-02-28T01:05:46;1.83;;;0.97;;
7667;SDS011;3876;42.204;24.686;2024-02-28T01:08:15;1.33;;;1.33;;
7667;SDS011;3876;42.204;24.686;2024-02-28T01:10:42;0.70;;;0.70;;
7667;SDS011;3876;42.204;24.686;2024-02-28T01:13:09;6.40;;;1.53;;
7667;SDS011;3876;42.204;24.686;2024-02-28T01:15:37;9.47;;;6.40;;
7667;SDS011;3876;42.204;24.686;2024-02-28T01:18:05;37.87;;;16.60;;
7667;SDS011;3876;42.204;24.686;2024-02-28T01:20:32;70.67;;;19.10;;
7667;SDS011;3876;42.204;24.686;2024-02-28T01:22:59;54.77;;;19.47;;
7667;SDS011;3876;42.204;24.686;2024-02-28T01:25:26;52.33;;;17.50;;
7667;SDS011;3876;42.204;24.686;2024-02-28T01:27:53;54.17;;;16.53;;
7667;SDS011;3876;42.204;24.686;2024-02-28T01:30:19;21.33;;;11.97;;
7667;SDS011;3876;42.204;24.686;2024-02-28T01:32:47;17.77;;;7.20;;
7667;SDS011;3876;42.204;24.686;2024-02-28T01:35:14;16.33;;;6.07;;
7667;SDS011;3876;42.204;24.686;2024-02-28T01:37:41;6.50;;;4.53;;
7667;SDS011;3876;42.204;24.686;2024-02-28T01:40:08;2.90;;;2.70;;
7667;SDS011;3876;42.204;24.686;2024-02-28T01:42:35;8.87;;;2.87;;
7667;SDS011;3876;42.204;24.686;2024-02-28T01:45:02;4.73;;;4.33;;
7667;SDS011;3876;42.204;24.686;2024-02-28T01:47:29;9.00;;;3.53;;
7667;SDS011;3876;42.204;24.686;2024-02-28T01:49:58;10.27;;;2.27;;
7667;SDS011;3876;42.204;24.686;2024-02-28T01:52:24;1.20;;;1.13;;
7667;SDS011;3876;42.204;24.686;2024-02-28T01:54:51;1.33;;;1.33;;
7667;SDS011;3876;42.204;24.686;2024-02-28T01:57:18;1.47;;;1.37;;
7667;SDS011;3876;42.204;24.686;2024-02-28T01:59:45;1.23;;;1.13;;
7667;SDS011;3876;42.204;24.686;2024-02-28T02:02:13;1.50;;;1.23;;
7667;SDS011;3876;42.204;24.686;2024-02-28T02:04:39;1.10;;;1.10;;
7667;SDS011;3876;42.204;24.686;2024-02-28T02:07:07;1.70;;;1.23;;
7667;SDS011;3876;42.204;24.686;2024-02-28T02:09:34;1.53;;;1.43;;
7667;SDS011;3876;42.204;24.686;2024-02-28T02:12:01;1.23;;;1.10;;
7667;SDS011;3876;42.204;24.686;2024-02-28T02:14:27;1.87;;;1.77;;
7667;SDS011;3876;42.204;24.686;2024-02-28T02:16:54;6.73;;;3.83;;
7667;SDS011;3876;42.204;24.686;2024-02-28T02:19:21;23.70;;;7.97;;
7667;SDS011;3876;42.204;24.686;2024-02-28T02:21:49;38.33;;;11.80;;
7667;SDS011;3876;42.204;24.686;2024-02-28T02:24:19;35.90;;;12.20;;
7667;SDS011;3876;42.204;24.686;2024-02-28T02:26:46;36.90;;;10.80;;
7667;SDS011;3876;42.204;24.686;2024-02-28T02:29:15;32.87;;;11.93;;
7667;SDS011;3876;42.204;24.686;2024-02-28T02:31:42;39.97;;;9.40;;
7667;SDS011;3876;42.204;24.686;2024-02-28T02:34:08;14.23;;;6.87;;
7667;SDS011;3876;42.204;24.686;2024-02-28T02:36:35;8.93;;;4.87;;
7667;SDS011;3876;42.204;24.686;2024-02-28T02:39:02;12.30;;;5.80;;
7667;SDS011;3876;42.204;24.686;2024-02-28T02:41:30;13.03;;;4.63;;
7667;SDS011;3876;42.204;24.686;2024-02-28T02:43:57;5.50;;;5.00;;
7667;SDS011;3876;42.204;24.686;2024-02-28T02:46:23;3.30;;;2.93;;
7667;SDS011;3876;42.204;24.686;2024-02-28T02:48:50;3.80;;;2.67;;
7667;SDS011;3876;42.204;24.686;2024-02-28T02:51:18;3.30;;;1.60;;
7667;SDS011;3876;42.204;24.686;2024-02-28T02:53:45;4.27;;;2.43;;
7667;SDS011;3876;42.204;24.686;2024-02-28T02:56:11;3.20;;;1.70;;
7667;SDS011;3876;42.204;24.686;2024-02-28T02:58:39;5.37;;;3.70;;
7667;SDS011;3876;42.204;24.686;2024-02-28T03:01:06;5.77;;;4.60;;
7667;SDS011;3876;42.204;24.686;2024-02-28T03:03:33;4.87;;;4.47;;
7667;SDS011;3876;42.204;24.686;2024-02-28T03:06:02;4.73;;;2.30;;
7667;SDS011;3876;42.204;24.686;2024-02-28T03:08:30;8.87;;;2.87;;
7667;SDS011;3876;42.204;24.686;2024-02-28T03:10:57;3.40;;;2.70;;
7667;SDS011;3876;42.204;24.686;2024-02-28T03:13:24;2.00;;;1.90;;
7667;SDS011;3876;42.204;24.686;2024-02-28T03:15:52;1.37;;;1.30;;
7667;SDS011;3876;42.204;24.686;2024-02-28T03:18:19;1.50;;;1.50;;
7667;SDS011;3876;42.204;24.686;2024-02-28T03:20:45;1.57;;;1.57;;
7667;SDS011;3876;42.204;24.686;2024-02-28T03:23:12;2.50;;;1.43;;
7667;SDS011;3876;42.204;24.686;2024-02-28T03:25:39;1.63;;;1.53;;
7667;SDS011;3876;42.204;24.686;2024-02-28T03:28:05;2.37;;;2.17;;
7667;SDS011;3876;42.204;24.686;2024-02-28T03:30:32;0.83;;;0.83;;
7667;SDS011;3876;42.204;24.686;2024-02-28T03:33:00;1.60;;;1.50;;
7667;SDS011;3876;42.204;24.686;2024-02-28T03:35:27;6.53;;;1.83;;
7667;SDS011;3876;42.204;24.686;2024-02-28T03:37:54;1.40;;;1.30;;
7667;SDS011;3876;42.204;24.686;2024-02-28T03:40:20;2.07;;;1.97;;
7667;SDS011;3876;42.204;24.686;2024-02-28T03:42:47;1.37;;;1.27;;
7667;SDS011;3876;42.204;24.686;2024-02-28T03:45:14;0.77;;;0.77;;
7667;SDS011;3876;42.204;24.686;2024-02-28T03:47:40;1.13;;;1.13;;
7667;SDS011;3876;42.204;24.686;2024-02-28T03:50:09;3.87;;;1.40;;
7667;SDS011;3876;42.204;24.686;2024-02-28T03:52:35;0.90;;;0.90;;
7667;SDS011;3876;42.204;24.686;2024-02-28T03:55:02;5.73;;;1.33;;
7667;SDS011;3876;42.204;24.686;2024-02-28T03:57:29;2.83;;;1.57;;
7667;SDS011;3876;42.204;24.686;2024-02-28T03:59:56;7.20;;;1.00;;
7667;SDS011;3876;42.204;24.686;2024-02-28T04:02:23;2.80;;;1.03;;
7667;SDS011;3876;42.204;24.686;2024-02-28T04:04:49;1.73;;;1.63;;
7667;SDS011;3876;42.204;24.686;2024-02-28T04:07:17;1.17;;;1.17;;
7667;SDS011;3876;42.204;24.686;2024-02-28T04:09:44;1.23;;;1.23;;
7667;SDS011;3876;42.204;24.686;2024-02-28T04:12:11;1.60;;;1.50;;
7667;SDS011;3876;42.204;24.686;2024-02-28T04:14:37;7.10;;;2.23;;
7667;SDS011;3876;42.204;24.686;2024-02-28T04:17:04;0.70;;;0.70;;
7667;SDS011;3876;42.204;24.686;2024-02-28T04:19:32;1.67;;;1.67;;
7667;SDS011;3876;42.204;24.686;2024-02-28T04:22:01;2.13;;;2.03;;
7667;SDS011;3876;42.204;24.686;2024-02-28T04:24:29;2.77;;;1.30;;
7667;SDS011;3876;42.204;24.686;2024-02-28T04:26:57;19.40;;;1.97;;
7667;SDS011;3876;42.204;24.686;2024-02-28T04:29:24;2.73;;;2.57;;
7667;SDS011;3876;42.204;24.686;2024-02-28T04:31:51;7.80;;;3.57;;
7667;SDS011;3876;42.204;24.686;2024-02-28T04:34:18;16.33;;;6.77;;
7667;SDS011;3876;42.204;24.686;2024-02-28T04:36:44;15.80;;;7.83;;
7667;SDS011;3876;42.204;24.686;2024-02-28T04:39:11;8.17;;;6.17;;
7667;SDS011;3876;42.204;24.686;2024-02-28T04:41:39;6.57;;;5.63;;
7667;SDS011;3876;42.204;24.686;2024-02-28T04:44:07;6.13;;;5.07;;
7667;SDS011;3876;42.204;24.686;2024-02-28T04:46:34;6.00;;;4.67;;
7667;SDS011;3876;42.204;24.686;2024-02-28T04:49:00;4.67;;;3.40;;
7667;SDS011;3876;42.204;24.686;2024-02-28T04:51:27;4.07;;;2.20;;
7667;SDS011;3876;42.204;24.686;2024-02-28T04:53:54;3.00;;;2.13;;
7667;SDS011;3876;42.204;24.686;2024-02-28T04:56:20;3.03;;;2.60;;
7667;SDS011;3876;42.204;24.686;2024-02-28T04:58:49;7.73;;;2.67;;
7667;SDS011;3876;42.204;24.686;2024-02-28T05:01:16;3.80;;;2.83;;
7667;SDS011;3876;42.204;24.686;2024-02-28T05:03:43;2.70;;;2.13;;
7667;SDS011;3876;42.204;24.686;2024-02-28T05:06:09;1.63;;;1.30;;
7667;SDS011;3876;42.204;24.686;2024-02-28T05:08:37;1.10;;;1.10;;
7667;SDS011;3876;42.204;24.686;2024-02-28T05:11:04;1.53;;;1.30;;
7667;SDS011;3876;42.204;24.686;2024-02-28T05:13:30;6.40;;;1.20;;
7667;SDS011;3876;42.204;24.686;2024-02-28T05:15:58;2.77;;;1.93;;
7667;SDS011;3876;42.204;24.686;2024-02-28T05:18:26;0.97;;;0.97;;
7667;SDS011;3876;42.204;24.686;2024-02-28T05:20:52;1.20;;;1.20;;
7667;SDS011;3876;42.204;24.686;2024-02-28T05:23:20;1.20;;;1.10;;
7667;SDS011;3876;42.204;24.686;2024-02-28T05:25:46;1.17;;;1.17;;
7667;SDS011;3876;42.204;24.686;2024-02-28T05:28:13;1.13;;;1.13;;
7667;SDS011;3876;42.204;24.686;2024-02-28T05:30:40;0.80;;;0.80;;
7667;SDS011;3876;42.204;24.686;2024-02-28T05:33:08;1.73;;;1.63;;
7667;SDS011;3876;42.204;24.686;2024-02-28T05:35:36;7.50;;;2.00;;
7667;SDS011;3876;42.204;24.686;2024-02-28T05:38:03;1.13;;;1.13;;
7667;SDS011;3876;42.204;24.686;2024-02-28T05:40:30;1.07;;;1.07;;
7667;SDS011;3876;42.204;24.686;2024-02-28T05:42:57;1.07;;;1.07;;
7667;SDS011;3876;42.204;24.686;2024-02-28T05:45:23;1.23;;;1.23;;
7667;SDS011;3876;42.204;24.686;2024-02-28T05:47:50;5.13;;;1.50;;
7667;SDS011;3876;42.204;24.686;2024-02-28T05:50:18;3.33;;;3.03;;
7667;SDS011;3876;42.204;24.686;2024-02-28T05:52:45;3.77;;;2.30;;
7667;SDS011;3876;42.204;24.686;2024-02-28T05:55:11;3.50;;;2.73;;
7667;SDS011;3876;42.204;24.686;2024-02-28T05:57:38;6.03;;;5.53;;
7667;SDS011;3876;42.204;24.686;2024-02-28T06:00:06;9.50;;;6.57;;
7667;SDS011;3876;42.204;24.686;2024-02-28T06:02:35;7.10;;;6.17;;
7667;SDS011;3876;42.204;24.686;2024-02-28T06:05:02;10.37;;;5.20;;
7667;SDS011;3876;42.204;24.686;2024-02-28T06:07:31;3.73;;;3.30;;
7667;SDS011;3876;42.204;24.686;2024-02-28T06:09:57;6.67;;;2.73;;
7667;SDS011;3876;42.204;24.686;2024-02-28T06:12:24;3.17;;;2.97;;
7667;SDS011;3876;42.204;24.686;2024-02-28T06:14:51;13.67;;;7.23;;
7667;SDS011;3876;42.204;24.686;2024-02-28T06:17:18;14.07;;;9.80;;
7667;SDS011;3876;42.204;24.686;2024-02-28T06:19:46;106.33;;;31.50;;
7667;SDS011;3876;42.204;24.686;2024-02-28T06:22:13;90.67;;;24.87;;
7667;SDS011;3876;42.204;24.686;2024-02-28T06:24:41;77.40;;;25.80;;
7667;SDS011;3876;42.204;24.686;2024-02-28T06:27:08;57.43;;;22.57;;
7667;SDS011;3876;42.204;24.686;2024-02-28T06:29:37;68.70;;;18.27;;
7667;SDS011;3876;42.204;24.686;2024-02-28T06:32:04;79.17;;;17.40;;
7667;SDS011;3876;42.204;24.686;2024-02-28T06:34:31;29.93;;;11.47;;
7667;SDS011;3876;42.204;24.686;2024-02-28T06:36:57;8.70;;;4.43;;
7667;SDS011;3876;42.204;24.686;2024-02-28T06:39:24;2.40;;;2.20;;
7667;SDS011;3876;42.204;24.686;2024-02-28T06:41:52;3.97;;;2.70;;
7667;SDS011;3876;42.204;24.686;2024-02-28T06:44:19;2.73;;;2.43;;
7667;SDS011;3876;42.204;24.686;2024-02-28T06:46:46;3.67;;;1.63;;
7667;SDS011;3876;42.204;24.686;2024-02-28T06:49:13;2.27;;;1.53;;
7667;SDS011;3876;42.204;24.686;2024-02-28T06:51:39;2.13;;;2.03;;
7667;SDS011;3876;42.204;24.686;2024-02-28T06:54:06;1.70;;;1.60;;
7667;SDS011;3876;42.204;24.686;2024-02-28T06:56:33;9.07;;;2.73;;
7667;SDS011;3876;42.204;24.686;2024-02-28T06:59:01;1.80;;;1.70;;
7667;SDS011;3876;42.204;24.686;2024-02-28T07:01:28;1.83;;;1.43;;
7667;SDS011;3876;42.204;24.686;2024-02-28T07:03:55;2.30;;;2.10;;
7667;SDS011;3876;42.204;24.686;2024-02-28T07:06:22;3.03;;;2.00;;
7667;SDS011;3876;42.204;24.686;2024-02-28T07:08:49;1.27;;;1.27;;
7667;SDS011;3876;42.204;24.686;2024-02-28T07:11:16;1.73;;;1.63;;
7667;SDS011;3876;42.204;24.686;2024-02-28T07:13:43;1.73;;;1.67;;
7667;SDS011;3876;42.204;24.686;2024-02-28T07:16:11;2.47;;;2.10;;
7667;SDS011;3876;42.204;24.686;2024-02-28T07:18:38;2.23;;;1.80;;
7667;SDS011;3876;42.204;24.686;2024-02-28T07:21:04;8.03;;;2.67;;
7667;SDS011;3876;42.204;24.686;2024-02-28T07:23:32;1.43;;;1.43;;
7667;SDS011;3876;42.204;24.686;2024-02-28T07:25:58;2.80;;;1.43;;
7667;SDS011;3876;42.204;24.686;2024-02-28T07:28:25;3.30;;;2.47;;
7667;SDS011;3876;42.204;24.686;2024-02-28T07:30:52;13.80;;;1.77;;
7667;SDS011;3876;42.204;24.686;2024-02-28T07:33:20;3.77;;;1.93;;
7667;SDS011;3876;42.204;24.686;2024-02-28T07:35:46;1.80;;;1.70;;
7667;SDS011;3876;42.204;24.686;2024-02-28T07:38:14;2.27;;;2.17;;
7667;SDS011;3876;42.204;24.686;2024-02-28T07:40:42;2.40;;;2.20;;
7667;SDS011;3876;42.204;24.686;2024-02-28T07:43:09;5.47;;;3.17;;
7667;SDS011;3876;42.204;24.686;2024-02-28T07:45:35;2.63;;;2.43;;
7667;SDS011;3876;42.204;24.686;2024-02-28T07:48:02;2.23;;;2.10;;
7667;SDS011;3876;42.204;24.686;2024-02-28T07:50:31;5.77;;;3.13;;
7667;SDS011;3876;42.204;24.686;2024-02-28T07:52:57;4.20;;;3.67;;
7667;SDS011;3876;42.204;24.686;2024-02-28T07:55:24;3.93;;;3.57;;
7667;SDS011;3876;42.204;24.686;2024-02-28T07:57:51;2.83;;;2.03;;
7667;SDS011;3876;42.204;24.686;2024-02-28T08:00:18;3.60;;;3.30;;
7667;SDS011;3876;42.204;24.686;2024-02-28T08:02:45;4.40;;;4.00;;
7667;SDS011;3876;42.204;24.686;2024-02-28T08:05:13;3.03;;;2.83;;
7667;SDS011;3876;42.204;24.686;2024-02-28T08:07:41;5.20;;;3.53;;
7667;SDS011;3876;42.204;24.686;2024-02-28T08:10:08;8.93;;;3.87;;
7667;SDS011;3876;42.204;24.686;2024-02-28T08:12:36;3.07;;;2.87;;
7667;SDS011;3876;42.204;24.686;2024-02-28T08:15:03;4.00;;;3.50;;
7667;SDS011;3876;42.204;24.686;2024-02-28T08:17:30;8.53;;;3.93;;
7667;SDS011;3876;42.204;24.686;2024-02-28T08:19:57;4.30;;;3.90;;
7667;SDS011;3876;42.204;24.686;2024-02-28T08:22:24;15.27;;;4.60;;
7667;SDS011;3876;42.204;24.686;2024-02-28T08:24:52;8.73;;;4.10;;
7667;SDS011;3876;42.204;24.686;2024-02-28T08:27:19;7.53;;;5.37;;
7667;SDS011;3876;42.204;24.686;2024-02-28T08:29:48;5.93;;;4.47;;
7667;SDS011;3876;42.204;24.686;2024-02-28T08:32:15;3.93;;;3.63;;
7667;SDS011;3876;42.204;24.686;2024-02-28T08:34:43;5.57;;;3.83;;
7667;SDS011;3876;42.204;24.686;2024-02-28T08:37:11;5.80;;;4.23;;
7667;SDS011;3876;42.204;24.686;2024-02-28T08:39:38;9.53;;;4.10;;
7667;SDS011;3876;42.204;24.686;2024-02-28T08:42:06;11.13;;;3.70;;
7667;SDS011;3876;42.204;24.686;2024-02-28T08:44:33;8.37;;;3.67;;
7667;SDS011;3876;42.204;24.686;2024-02-28T08:47:00;4.57;;;4.27;;
7667;SDS011;3876;42.204;24.686;2024-02-28T08:49:26;4.90;;;4.20;;
7667;SDS011;3876;42.204;24.686;2024-02-28T08:51:54;4.57;;;4.27;;
7667;SDS011;3876;42.204;24.686;2024-02-28T08:54:21;9.40;;;5.80;;
7667;SDS011;3876;42.204;24.686;2024-02-28T08:56:48;6.30;;;3.93;;
7667;SDS011;3876;42.204;24.686;2024-02-28T08:59:16;5.27;;;4.57;;
7667;SDS011;3876;42.204;24.686;2024-02-28T09:01:43;8.33;;;4.17;;
7667;SDS011;3876;42.204;24.686;2024-02-28T09:04:10;9.33;;;5.20;;
7667;SDS011;3876;42.204;24.686;2024-02-28T09:06:37;10.57;;;4.13;;
7667;SDS011;3876;42.204;24.686;2024-02-28T09:09:03;5.67;;;4.67;;
7667;SDS011;3876;42.204;24.686;2024-02-28T09:11:30;5.50;;;4.03;;
7667;SDS011;3876;42.204;24.686;2024-02-28T09:13:57;7.90;;;3.93;;
7667;SDS011;3876;42.204;24.686;2024-02-28T09:16:25;4.97;;;4.47;;
7667;SDS011;3876;42.204;24.686;2024-02-28T09:18:52;6.03;;;3.90;;
7667;SDS011;3876;42.204;24.686;2024-02-28T09:21:18;4.20;;;3.80;;
7667;SDS011;3876;42.204;24.686;2024-02-28T09:23:45;5.80;;;4.10;;
7667;SDS011;3876;42.204;24.686;2024-02-28T09:26:12;4.87;;;4.47;;
7667;SDS011;3876;42.204;24.686;2024-02-28T09:28:39;10.57;;;4.67;;
7667;SDS011;3876;42.204;24.686;2024-02-28T09:31:06;11.03;;;5.23;;
7667;SDS011;3876;42.204;24.686;2024-02-28T09:33:35;6.27;;;5.50;;
7667;SDS011;3876;42.204;24.686;2024-02-28T09:36:03;6.43;;;4.67;;
7667;SDS011;3876;42.204;24.686;2024-02-28T09:38:31;12.33;;;7.53;;
7667;SDS011;3876;42.204;24.686;2024-02-28T09:41:00;29.70;;;11.27;;
7667;SDS011;3876;42.204;24.686;2024-02-28T09:43:28;4.73;;;4.27;;
7667;SDS011;3876;42.204;24.686;2024-02-28T09:45:58;5.90;;;4.27;;
7667;SDS011;3876;42.204;24.686;2024-02-28T09:48:29;5.40;;;5.00;;
7667;SDS011;3876;42.204;24.686;2024-02-28T09:50:58;5.63;;;5.27;;
7667;SDS011;3876;42.204;24.686;2024-02-28T09:53:26;5.27;;;4.07;;
7667;SDS011;3876;42.204;24.686;2024-02-28T09:55:53;20.23;;;5.27;;
7667;SDS011;3876;42.204;24.686;2024-02-28T09:58:20;14.37;;;6.40;;
7667;SDS011;3876;42.204;24.686;2024-02-28T10:00:47;11.70;;;6.53;;
7667;SDS011;3876;42.204;24.686;2024-02-28T10:03:16;10.73;;;4.97;;
7667;SDS011;3876;42.204;24.686;2024-02-28T10:05:45;20.17;;;8.83;;
7667;SDS011;3876;42.204;24.686;2024-02-28T10:08:14;13.30;;;6.87;;
7667;SDS011;3876;42.204;24.686;2024-02-28T10:10:47;5.70;;;4.23;;
7667;SDS011;3876;42.204;24.686;2024-02-28T10:13:15;3.87;;;3.47;;
7667;SDS011;3876;42.204;24.686;2024-02-28T10:15:42;4.33;;;4.03;;
7667;SDS011;3876;42.204;24.686;2024-02-28T10:18:09;6.67;;;4.10;;
7667;SDS011;3876;42.204;24.686;2024-02-28T10:20:37;10.13;;;4.87;;
7667;SDS011;3876;42.204;24.686;2024-02-28T10:23:05;9.60;;;4.23;;
7667;SDS011;3876;42.204;24.686;2024-02-28T10:25:41;3.73;;;3.30;;
7667;SDS011;3876;42.204;24.686;2024-02-28T10:28:08;5.13;;;4.60;;
7667;SDS011;3876;42.204;24.686;2024-02-28T10:30:38;5.00;;;3.97;;
7667;SDS011;3876;42.204;24.686;2024-02-28T10:33:09;13.57;;;4.63;;
7667;SDS011;3876;42.204;24.686;2024-02-28T10:35:37;6.60;;;4.77;;
7667;SDS011;3876;42.204;24.686;2024-02-28T10:38:05;11.53;;;4.60;;
7667;SDS011;3876;42.204;24.686;2024-02-28T10:40:32;5.53;;;3.07;;
7667;SDS011;3876;42.204;24.686;2024-02-28T10:43:00;5.83;;;3.53;;
7667;SDS011;3876;42.204;24.686;2024-02-28T10:45:29;6.73;;;6.03;;
7667;SDS011;3876;42.204;24.686;2024-02-28T10:47:57;7.40;;;4.80;;
7667;SDS011;3876;42.204;24.686;2024-02-28T10:50:24;4.37;;;4.07;;
7667;SDS011;3876;42.204;24.686;2024-02-28T10:52:51;3.37;;;3.07;;
7667;SDS011;3876;42.204;24.686;2024-02-28T10:55:21;3.60;;;3.40;;
7667;SDS011;3876;42.204;24.686;2024-02-28T10:57:50;17.43;;;9.20;;
7667;SDS011;3876;42.204;24.686;2024-02-28T11:00:26;9.60;;;6.87;;
7667;SDS011;3876;42.204;24.686;2024-02-28T11:02:53;13.73;;;6.63;;
7667;SDS011;3876;42.204;24.686;2024-02-28T11:05:20;8.87;;;6.03;;
7667;SDS011;3876;42.204;24.686;2024-02-28T11:07:50;8.43;;;4.43;;
7667;SDS011;3876;42.204;24.686;2024-02-28T11:10:17;18.73;;;5.60;;
7667;SDS011;3876;42.204;24.686;2024-02-28T11:12:54;7.90;;;4.10;;
7667;SDS011;3876;42.204;24.686;2024-02-28T11:15:21;3.33;;;2.80;;
7667;SDS011;3876;42.204;24.686;2024-02-28T11:17:52;5.80;;;3.70;;
7667;SDS011;3876;42.204;24.686;2024-02-28T11:20:19;3.60;;;2.53;;
7667;SDS011;3876;42.204;24.686;2024-02-28T11:22:47;2.97;;;2.77;;
7667;SDS011;3876;42.204;24.686;2024-02-28T11:25:14;3.37;;;3.17;;
7667;SDS011;3876;42.204;24.686;2024-02-28T11:27:47;3.43;;;3.23;;
7667;SDS011;3876;42.204;24.686;2024-02-28T11:30:14;7.53;;;4.47;;
7667;SDS011;3876;42.204;24.686;2024-02-28T11:32:43;3.17;;;2.83;;
7667;SDS011;3876;42.204;24.686;2024-02-28T11:35:10;4.73;;;3.20;;
7667;SDS011;3876;42.204;24.686;2024-02-28T11:37:38;15.87;;;6.37;;
7667;SDS011;3876;42.204;24.686;2024-02-28T11:40:06;16.90;;;8.00;;
7667;SDS011;3876;42.204;24.686;2024-02-28T11:42:37;11.60;;;4.87;;
7667;SDS011;3876;42.204;24.686;2024-02-28T11:45:05;7.53;;;4.90;;
7667;SDS011;3876;42.204;24.686;2024-02-28T11:47:35;5.00;;;4.50;;
7667;SDS011;3876;42.204;24.686;2024-02-28T11:50:04;5.00;;;4.07;;
7667;SDS011;3876;42.204;24.686;2024-02-28T11:52:33;8.17;;;5.27;;
7667;SDS011;3876;42.204;24.686;2024-02-28T11:55:00;14.93;;;6.73;;
7667;SDS011;3876;42.204;24.686;2024-02-28T11:57:27;16.67;;;6.17;;
7667;SDS011;3876;42.204;24.686;2024-02-28T12:00:01;12.43;;;7.03;;
7667;SDS011;3876;42.204;24.686;2024-02-28T12:02:29;5.80;;;4.97;;
7667;SDS011;3876;42.204;24.686;2024-02-28T12:04:59;11.50;;;6.07;;
7667;SDS011;3876;42.204;24.686;2024-02-28T12:07:28;16.73;;;5.87;;
7667;SDS011;3876;42.204;24.686;2024-02-28T12:09:55;17.40;;;5.00;;
7667;SDS011;3876;42.204;24.686;2024-02-28T12:12:22;10.50;;;5.23;;
7667;SDS011;3876;42.204;24.686;2024-02-28T12:14:49;5.20;;;4.80;;
7667;SDS011;3876;42.204;24.686;2024-02-28T12:17:16;12.23;;;5.03;;
7667;SDS011;3876;42.204;24.686;2024-02-28T12:19:43;5.13;;;4.40;;
7667;SDS011;3876;42.204;24.686;2024-02-28T12:22:10;7.13;;;3.70;;
7667;SDS011;3876;42.204;24.686;2024-02-28T12:24:38;3.67;;;3.37;;
7667;SDS011;3876;42.204;24.686;2024-02-28T12:27:05;3.07;;;2.97;;
7667;SDS011;3876;42.204;24.686;2024-02-28T12:29:32;6.53;;;2.70;;
7667;SDS011;3876;42.204;24.686;2024-02-28T12:31:58;3.70;;;3.40;;
7667;SDS011;3876;42.204;24.686;2024-02-28T12:34:25;3.40;;;3.10;;
7667;SDS011;3876;42.204;24.686;2024-02-28T12:36:52;2.77;;;2.47;;
7667;SDS011;3876;42.204;24.686;2024-02-28T12:39:19;4.33;;;3.33;;
7667;SDS011;3876;42.204;24.686;2024-02-28T12:41:48;5.77;;;3.30;;
7667;SDS011;3876;42.204;24.686;2024-02-28T12:44:15;3.37;;;3.07;;
7667;SDS011;3876;42.204;24.686;2024-02-28T12:46:42;3.53;;;3.27;;
7667;SDS011;3876;42.204;24.686;2024-02-28T12:49:08;12.43;;;2.53;;
7667;SDS011;3876;42.204;24.686;2024-02-28T12:51:36;4.93;;;4.37;;
7667;SDS011;3876;42.204;24.686;2024-02-28T12:54:04;5.67;;;3.63;;
7667;SDS011;3876;42.204;24.686;2024-02-28T12:56:31;5.80;;;2.57;;
7667;SDS011;3876;42.204;24.686;2024-02-28T12:58:59;5.87;;;2.57;;
7667;SDS011;3876;42.204;24.686;2024-02-28T13:01:26;6.07;;;3.87;;
7667;SDS011;3876;42.204;24.686;2024-02-28T13:03:53;3.07;;;2.63;;
7667;SDS011;3876;42.204;24.686;2024-02-28T13:06:20;4.13;;;2.60;;
7667;SDS011;3876;42.204;24.686;2024-02-28T13:08:47;3.20;;;3.00;;
7667;SDS011;3876;42.204;24.686;2024-02-28T13:11:16;3.30;;;3.17;;
7667;SDS011;3876;42.204;24.686;2024-02-28T13:13:44;10.27;;;3.57;;
7667;SDS011;3876;42.204;24.686;2024-02-28T13:16:12;5.13;;;3.80;;
7667;SDS011;3876;42.204;24.686;2024-02-28T13:18:39;3.73;;;2.70;;
7667;SDS011;3876;42.204;24.686;2024-02-28T13:21:06;3.43;;;3.23;;
7667;SDS011;3876;42.204;24.686;2024-02-28T13:23:33;2.80;;;2.70;;
7667;SDS011;3876;42.204;24.686;2024-02-28T13:26:00;3.50;;;2.27;;
7667;SDS011;3876;42.204;24.686;2024-02-28T13:28:26;7.17;;;3.73;;
7667;SDS011;3876;42.204;24.686;2024-02-28T13:30:55;5.00;;;3.43;;
7667;SDS011;3876;42.204;24.686;2024-02-28T13:33:24;2.77;;;2.60;;
7667;SDS011;3876;42.204;24.686;2024-02-28T13:35:51;5.83;;;2.93;;
7667;SDS011;3876;42.204;24.686;2024-02-28T13:38:18;3.00;;;2.77;;
7667;SDS011;3876;42.204;24.686;2024-02-28T13:40:45;3.30;;;3.10;;
7667;SDS011;3876;42.204;24.686;2024-02-28T13:43:12;3.63;;;2.50;;
7667;SDS011;3876;42.204;24.686;2024-02-28T13:45:39;3.00;;;2.80;;
7667;SDS011;3876;42.204;24.686;2024-02-28T13:48:14;2.90;;;2.70;;
7667;SDS011;3876;42.204;24.686;2024-02-28T13:50:44;3.23;;;3.03;;
7667;SDS011;3876;42.204;24.686;2024-02-28T13:53:11;3.90;;;3.10;;
7667;SDS011;3876;42.204;24.686;2024-02-28T13:55:38;5.83;;;3.57;;
7667;SDS011;3876;42.204;24.686;2024-02-28T13:58:05;2.57;;;2.47;;
7667;SDS011;3876;42.204;24.686;2024-02-28T14:00:33;5.37;;;2.83;;
7667;SDS011;3876;42.204;24.686;2024-02-28T14:03:00;10.93;;;3.40;;
7667;SDS011;3876;42.204;24.686;2024-02-28T14:05:29;2.73;;;2.53;;
7667;SDS011;3876;42.204;24.686;2024-02-28T14:07:58;4.23;;;3.30;;
7667;SDS011;3876;42.204;24.686;2024-02-28T14:10:28;3.83;;;3.63;;
7667;SDS011;3876;42.204;24.686;2024-02-28T14:12:55;5.40;;;2.70;;
7667;SDS011;3876;42.204;24.686;2024-02-28T14:15:23;3.07;;;2.30;;
7667;SDS011;3876;42.204;24.686;2024-02-28T14:17:50;3.37;;;3.03;;
7667;SDS011;3876;42.204;24.686;2024-02-28T14:20:17;9.93;;;3.17;;
7667;SDS011;3876;42.204;24.686;2024-02-28T14:22:44;5.57;;;3.80;;
7667;SDS011;3876;42.204;24.686;2024-02-28T14:25:13;4.30;;;3.13;;
7667;SDS011;3876;42.204;24.686;2024-02-28T14:27:41;8.43;;;3.30;;
7667;SDS011;3876;42.204;24.686;2024-02-28T14:30:11;2.77;;;2.47;;
7667;SDS011;3876;42.204;24.686;2024-02-28T14:32:39;4.20;;;2.97;;
7667;SDS011;3876;42.204;24.686;2024-02-28T14:35:07;3.80;;;3.43;;
7667;SDS011;3876;42.204;24.686;2024-02-28T14:37:35;2.77;;;2.60;;
7667;SDS011;3876;42.204;24.686;2024-02-28T14:40:02;2.87;;;2.67;;
7667;SDS011;3876;42.204;24.686;2024-02-28T14:42:36;3.30;;;3.00;;
7667;SDS011;3876;42.204;24.686;2024-02-28T14:45:04;3.60;;;2.93;;
7667;SDS011;3876;42.204;24.686;2024-02-28T14:47:31;3.63;;;3.23;;
7667;SDS011;3876;42.204;24.686;2024-02-28T14:49:59;2.97;;;2.30;;
7667;SDS011;3876;42.204;24.686;2024-02-28T14:52:25;5.63;;;4.13;;
7667;SDS011;3876;42.204;24.686;2024-02-28T14:54:52;3.40;;;3.10;;
7667;SDS011;3876;42.204;24.686;2024-02-28T14:57:19;3.60;;;3.40;;
7667;SDS011;3876;42.204;24.686;2024-02-28T14:59:47;4.70;;;3.00;;